createdAt,value
2022-09-21T00:00:02.671Z,99.90
2022-09-21T00:02:29.889Z,99.90
2022-09-21T00:04:57.895Z,99.90
2022-09-21T00:07:24.513Z,99.90
2022-09-21T00:09:55.778Z,99.90
2022-09-21T00:12:22.509Z,99.90
2022-09-21T00:14:55.309Z,99.90
2022-09-21T00:17:25.000Z,99.90
2022-09-21T00:19:51.584Z,99.90
2022-09-21T00:22:19.526Z,99.90
2022-09-21T00:24:46.720Z,99.90
2022-09-21T00:27:13.320Z,99.90
2022-09-21T00:29:39.904Z,99.90
2022-09-21T00:32:08.783Z,99.90
2022-09-21T00:34:35.416Z,99.90
2022-09-21T00:37:02.158Z,99.90
2022-09-21T00:39:30.703Z,99.90
2022-09-21T00:41:57.363Z,99.90
2022-09-21T00:44:25.492Z,99.90
2022-09-21T00:46:56.981Z,99.90
2022-09-21T00:49:23.927Z,99.90
2022-09-21T00:51:51.191Z,99.90
2022-09-21T00:54:21.535Z,99.90
2022-09-21T00:56:49.599Z,99.90
2022-09-21T00:59:21.415Z,99.90
2022-09-21T01:01:49.520Z,99.90
2022-09-21T01:04:16.236Z,99.90
2022-09-21T01:06:42.942Z,99.90
2022-09-21T01:09:10.367Z,99.90
2022-09-21T01:11:42.420Z,99.90
2022-09-21T01:14:20.632Z,99.90
2022-09-21T01:16:52.991Z,99.90
2022-09-21T01:19:28.569Z,99.90
2022-09-21T01:22:00.452Z,99.90
2022-09-21T01:24:39.912Z,99.90
2022-09-21T01:27:30.459Z,99.90
2022-09-21T01:30:00.478Z,99.90
2022-09-21T01:32:28.751Z,99.90
2022-09-21T01:34:58.830Z,99.90
2022-09-21T01:37:31.072Z,99.90
2022-09-21T01:40:00.578Z,99.90
2022-09-21T01:42:28.342Z,99.90
2022-09-21T01:44:56.133Z,99.90
2022-09-21T01:47:24.606Z,99.90
2022-09-21T01:49:54.050Z,99.90
2022-09-21T01:52:23.170Z,99.90
2022-09-21T01:54:52.058Z,99.90
2022-09-21T01:57:23.638Z,99.90
2022-09-21T01:59:51.252Z,99.90
2022-09-21T02:02:20.727Z,99.90
2022-09-21T02:04:50.718Z,99.90
2022-09-21T02:07:18.073Z,99.90
2022-09-21T02:09:44.930Z,99.90
2022-09-21T02:12:18.756Z,99.90
2022-09-21T02:14:46.125Z,99.90
2022-09-21T02:17:33.925Z,99.90
2022-09-21T02:20:07.206Z,99.90
2022-09-21T02:22:38.929Z,99.90
2022-09-21T02:25:07.407Z,99.90
2022-09-21T02:27:37.911Z,99.90
2022-09-21T02:30:07.229Z,99.90
2022-09-21T02:32:38.721Z,99.90
2022-09-21T02:35:09.571Z,99.90
2022-09-21T02:37:40.459Z,99.90
2022-09-21T02:40:13.448Z,99.90
2022-09-21T02:42:42.609Z,99.90
2022-09-21T02:45:11.187Z,99.90
2022-09-21T02:47:40.710Z,99.90
2022-09-21T02:50:11.261Z,99.90
2022-09-21T02:52:39.339Z,99.90
2022-09-21T02:55:06.618Z,99.90
2022-09-21T02:57:34.403Z,99.90
2022-09-21T03:00:01.492Z,99.90
2022-09-21T03:02:35.573Z,99.90
2022-09-21T03:05:03.369Z,99.90
2022-09-21T03:07:31.390Z,99.90
2022-09-21T03:09:58.067Z,99.90
2022-09-21T03:12:25.318Z,99.90
2022-09-21T03:14:51.984Z,99.90
2022-09-21T03:17:18.643Z,99.90
2022-09-21T03:19:45.823Z,99.90
2022-09-21T03:22:12.401Z,99.90
2022-09-21T03:24:40.332Z,99.90
2022-09-21T03:27:07.568Z,99.90
2022-09-21T03:29:34.166Z,99.90
2022-09-21T03:32:01.278Z,99.90
2022-09-21T03:34:28.502Z,99.90
2022-09-21T03:36:55.077Z,99.90
2022-09-21T03:39:21.658Z,99.90
2022-09-21T03:41:50.207Z,99.90
2022-09-21T03:44:16.860Z,99.90
2022-09-21T03:46:43.643Z,99.90
2022-09-21T03:49:10.842Z,99.90
2022-09-21T03:51:37.434Z,99.90
2022-09-21T03:54:04.050Z,99.90
2022-09-21T03:56:31.339Z,99.90
2022-09-21T03:58:59.356Z,99.90
2022-09-21T04:01:26.001Z,99.90
2022-09-21T04:03:53.366Z,99.90
2022-09-21T04:06:20.017Z,99.90
2022-09-21T04:08:46.605Z,99.90
2022-09-21T04:11:15.234Z,99.90
2022-09-21T04:13:41.858Z,99.90
2022-09-21T04:16:10.062Z,99.90
2022-09-21T04:18:37.416Z,99.90
2022-09-21T04:21:04.185Z,99.90
2022-09-21T04:23:30.797Z,99.90
2022-09-21T04:25:58.072Z,99.90
2022-09-21T04:28:25.427Z,99.90
2022-09-21T04:30:52.764Z,99.90
2022-09-21T04:33:22.526Z,99.90
2022-09-21T04:35:54.024Z,99.90
2022-09-21T04:38:20.625Z,99.90
2022-09-21T04:40:54.119Z,99.90
2022-09-21T04:43:22.701Z,99.90
2022-09-21T04:45:49.422Z,99.90
2022-09-21T04:48:16.229Z,99.90
2022-09-21T04:50:48.027Z,99.90
2022-09-21T04:53:14.658Z,99.90
2022-09-21T04:55:41.406Z,99.90
2022-09-21T04:58:08.645Z,99.90
2022-09-21T05:00:35.232Z,99.90
2022-09-21T05:03:01.835Z,99.90
2022-09-21T05:05:29.053Z,99.90
2022-09-21T05:07:56.991Z,99.90
2022-09-21T05:10:23.577Z,99.90
2022-09-21T05:12:50.864Z,99.90
2022-09-21T05:15:17.460Z,99.90
2022-09-21T05:17:44.126Z,99.90
2022-09-21T05:20:13.583Z,99.90
2022-09-21T05:22:40.163Z,99.90
2022-09-21T05:25:09.314Z,99.90
2022-09-21T05:27:37.563Z,99.90
2022-09-21T05:30:04.823Z,99.90
2022-09-21T05:32:38.312Z,99.90
2022-09-21T05:35:10.643Z,99.90
2022-09-21T05:37:42.030Z,99.90
2022-09-21T05:40:12.062Z,99.90
2022-09-21T05:42:38.952Z,99.90
2022-09-21T05:45:06.204Z,99.90
2022-09-21T05:47:37.333Z,99.90
2022-09-21T05:50:13.769Z,99.90
2022-09-21T05:52:45.074Z,99.90
2022-09-21T05:55:20.972Z,99.90
2022-09-21T05:57:54.385Z,99.90
2022-09-21T06:00:21.918Z,99.90
2022-09-21T06:02:53.718Z,99.90
2022-09-21T06:05:20.831Z,99.90
2022-09-21T06:07:47.430Z,99.90
2022-09-21T06:10:16.075Z,99.90
2022-09-21T06:12:42.800Z,99.90
2022-09-21T06:15:11.292Z,99.90
2022-09-21T06:17:38.489Z,99.90
2022-09-21T06:20:05.657Z,99.90
2022-09-21T06:22:32.262Z,99.90
2022-09-21T06:24:59.485Z,99.90
2022-09-21T06:27:27.571Z,99.90
2022-09-21T06:29:54.271Z,99.90
2022-09-21T06:32:21.458Z,99.90
2022-09-21T06:34:48.042Z,99.90
2022-09-21T06:37:14.700Z,99.90
2022-09-21T06:39:41.913Z,99.90
2022-09-21T06:42:08.523Z,99.90
2022-09-21T06:44:36.492Z,99.90
2022-09-21T06:47:03.832Z,99.90
2022-09-21T06:49:30.430Z,99.90
2022-09-21T06:51:57.038Z,99.90
2022-09-21T06:54:24.268Z,99.90
2022-09-21T06:56:50.858Z,99.90
2022-09-21T06:59:17.463Z,99.90
2022-09-21T07:01:46.100Z,99.90
2022-09-21T07:04:12.739Z,99.90
2022-09-21T07:06:39.326Z,99.90
2022-09-21T07:11:53.147Z,99.90
2022-09-21T07:14:20.348Z,99.90
2022-09-21T07:16:48.345Z,99.90
2022-09-21T07:19:14.946Z,99.90
2022-09-21T07:21:42.194Z,99.90
2022-09-21T07:24:12.168Z,99.90
2022-09-21T07:26:39.352Z,99.90
2022-09-21T07:29:07.358Z,99.90
2022-09-21T07:31:37.111Z,99.90
2022-09-21T07:34:05.136Z,99.90
2022-09-21T07:36:32.466Z,99.90
2022-09-21T07:38:59.036Z,99.90
2022-09-21T07:41:25.781Z,99.90
2022-09-21T07:43:53.033Z,99.90
2022-09-21T07:46:19.650Z,99.90
2022-09-21T07:48:46.704Z,99.90
2022-09-21T07:51:15.626Z,99.90
2022-09-21T07:53:43.187Z,99.90
2022-09-21T07:56:10.670Z,99.90
2022-09-21T07:58:38.045Z,99.90
2022-09-21T08:01:05.354Z,99.90
2022-09-21T08:03:32.050Z,99.90
2022-09-21T08:05:59.499Z,99.90
2022-09-21T08:08:27.470Z,99.90
2022-09-21T08:10:54.059Z,99.90
2022-09-21T08:13:21.245Z,99.90
2022-09-21T08:15:50.226Z,99.90
2022-09-21T08:18:17.060Z,99.90
2022-09-21T08:20:44.467Z,99.90
2022-09-21T08:23:11.054Z,99.90
2022-09-21T08:25:38.978Z,99.90
2022-09-21T08:28:09.865Z,99.90
2022-09-21T08:30:36.783Z,99.90
2022-09-21T08:33:03.417Z,99.90
2022-09-21T08:35:30.629Z,99.90
2022-09-21T08:37:57.232Z,99.90
2022-09-21T08:40:23.992Z,99.90
2022-09-21T08:42:56.270Z,99.90
2022-09-21T08:45:25.059Z,99.90
2022-09-21T08:47:53.523Z,99.90
2022-09-21T08:50:24.631Z,99.90
2022-09-21T08:52:52.373Z,99.90
2022-09-21T08:55:20.247Z,99.90
2022-09-21T08:57:47.288Z,99.90
2022-09-21T09:00:16.314Z,99.90
2022-09-21T09:02:59.992Z,99.90
2022-09-21T09:05:33.414Z,99.90
2022-09-21T09:08:25.154Z,99.90
2022-09-21T09:10:56.350Z,99.90
2022-09-21T09:13:33.700Z,99.90
2022-09-21T09:16:06.015Z,99.90
2022-09-21T09:18:43.382Z,99.90
2022-09-21T09:21:15.175Z,99.90
2022-09-21T09:23:46.696Z,99.90
2022-09-21T09:26:17.553Z,99.90
2022-09-21T09:28:51.346Z,99.90
2022-09-21T09:31:24.513Z,99.90
2022-09-21T09:33:55.937Z,99.90
2022-09-21T09:36:46.582Z,99.90
2022-09-21T09:39:13.090Z,99.90
2022-09-21T09:41:55.270Z,99.90
2022-09-21T09:44:26.913Z,99.90
2022-09-21T09:47:00.817Z,99.90
2022-09-21T09:49:32.476Z,99.90
2022-09-21T09:51:59.910Z,99.90
2022-09-21T09:54:27.303Z,99.90
2022-09-21T09:56:54.243Z,99.90
2022-09-21T09:59:26.328Z,99.90
2022-09-21T10:02:00.949Z,99.90
2022-09-21T10:04:28.372Z,99.90
2022-09-21T10:06:55.008Z,99.90
2022-09-21T10:09:25.898Z,99.90
2022-09-21T10:11:54.923Z,99.90
2022-09-21T10:14:23.377Z,99.90
2022-09-21T10:16:50.732Z,99.90
2022-09-21T10:19:20.970Z,99.90
2022-09-21T10:21:51.956Z,99.90
2022-09-21T10:24:21.576Z,99.90
2022-09-21T10:26:49.704Z,99.90
2022-09-21T10:29:19.964Z,99.90
2022-09-21T10:31:54.127Z,99.90
2022-09-21T10:34:23.491Z,99.90
2022-09-21T10:36:51.791Z,99.90
2022-09-21T10:39:19.351Z,99.90
2022-09-21T10:41:54.045Z,99.90
2022-09-21T10:44:22.350Z,99.90
2022-09-21T10:46:49.866Z,99.90
2022-09-21T10:49:22.162Z,99.90
2022-09-21T10:51:52.663Z,99.90
2022-09-21T10:54:22.915Z,99.90
2022-09-21T10:56:54.007Z,99.90
2022-09-21T10:59:24.500Z,99.90
2022-09-21T11:01:52.457Z,99.90
2022-09-21T11:04:40.334Z,99.90
2022-09-21T11:07:12.649Z,99.90
2022-09-21T11:09:40.858Z,99.90
2022-09-21T11:12:14.324Z,99.90
2022-09-21T11:14:49.293Z,99.90
2022-09-21T11:17:19.806Z,99.90
2022-09-21T11:19:49.538Z,99.90
2022-09-21T11:22:22.141Z,99.90
2022-09-21T11:24:50.653Z,99.90
2022-09-21T11:27:21.139Z,99.90
2022-09-21T11:29:52.843Z,99.90
2022-09-21T11:32:26.665Z,99.90
2022-09-21T11:35:12.084Z,99.90
2022-09-21T11:37:48.915Z,99.90
2022-09-21T11:40:24.506Z,99.90
2022-09-21T11:42:56.719Z,99.90
2022-09-21T11:45:30.286Z,99.90
2022-09-21T11:48:04.387Z,99.90
2022-09-21T11:50:45.916Z,99.90
2022-09-21T11:53:21.128Z,99.40
2022-09-21T11:56:03.010Z,97.90
2022-09-21T11:58:32.466Z,97.40
2022-09-21T12:01:05.669Z,98.00
2022-09-21T12:03:39.493Z,99.00
2022-09-21T12:06:17.894Z,98.10
2022-09-21T12:09:03.014Z,98.10
2022-09-21T12:11:34.929Z,98.50
2022-09-21T12:14:05.931Z,97.60
2022-09-21T12:16:35.351Z,98.20
2022-09-21T12:19:05.972Z,98.10
2022-09-21T12:21:35.643Z,97.50
2022-09-21T12:24:04.223Z,98.90
2022-09-21T12:26:36.222Z,99.30
2022-09-21T12:29:06.314Z,98.40
2022-09-21T12:31:37.933Z,99.30
2022-09-21T12:34:09.893Z,98.60
2022-09-21T12:36:41.142Z,98.00
2022-09-21T12:39:15.035Z,97.80
2022-09-21T12:41:47.613Z,98.10
2022-09-21T12:44:17.482Z,97.20
2022-09-21T12:46:46.265Z,96.90
2022-09-21T12:49:15.534Z,98.30
2022-09-21T12:51:44.310Z,98.80
2022-09-21T12:54:17.550Z,97.30
2022-09-21T12:56:48.974Z,97.40
2022-09-21T12:59:22.557Z,97.50
2022-09-21T13:01:56.929Z,97.40
2022-09-21T13:04:42.059Z,97.50
2022-09-21T13:07:29.028Z,96.50
2022-09-21T13:09:56.051Z,95.80
2022-09-21T13:12:25.663Z,95.30
2022-09-21T13:15:01.134Z,94.20
2022-09-21T13:17:30.283Z,95.60
2022-09-21T13:19:58.512Z,95.20
2022-09-21T13:22:26.055Z,94.90
2022-09-21T13:25:06.699Z,94.50
2022-09-21T13:27:52.099Z,94.70
2022-09-21T13:30:28.848Z,93.90
2022-09-21T13:32:55.461Z,94.50
2022-09-21T13:35:37.563Z,95.40
2022-09-21T13:38:31.312Z,95.70
2022-09-21T13:40:59.607Z,95.30
2022-09-21T13:43:45.276Z,96.40
2022-09-21T13:46:33.334Z,96.50
2022-09-21T13:49:02.774Z,97.10
2022-09-21T13:51:33.083Z,96.80
2022-09-21T13:54:01.225Z,97.20
2022-09-21T13:56:29.276Z,97.40
2022-09-21T13:58:58.052Z,96.10
2022-09-21T14:04:20.182Z,95.30
2022-09-21T14:06:48.246Z,95.20
2022-09-21T14:09:21.778Z,95.10
2022-09-21T14:11:53.628Z,95.30
2022-09-21T14:14:24.241Z,95.40
2022-09-21T14:16:55.359Z,94.60
2022-09-21T14:19:41.004Z,94.40
2022-09-21T14:22:22.478Z,94.70
2022-09-21T14:25:11.003Z,94.70
2022-09-21T14:27:44.776Z,95.30
2022-09-21T14:30:17.538Z,95.40
2022-09-21T14:32:45.661Z,94.80
2022-09-21T14:35:15.929Z,95.10
2022-09-21T14:37:46.427Z,95.20
2022-09-21T14:40:20.233Z,96.20
2022-09-21T14:42:47.263Z,95.90
2022-09-21T14:45:16.590Z,96.10
2022-09-21T14:47:51.141Z,96.00
2022-09-21T14:50:23.423Z,96.10
2022-09-21T14:52:59.978Z,96.00
2022-09-21T14:55:32.174Z,95.40
2022-09-21T14:58:11.545Z,96.10
2022-09-21T15:00:39.870Z,95.40
2022-09-21T15:03:25.248Z,95.00
2022-09-21T15:05:55.162Z,95.00
2022-09-21T15:08:32.427Z,94.40
2022-09-21T15:11:06.786Z,95.70
2022-09-21T15:13:44.157Z,94.60
2022-09-21T15:16:16.872Z,94.80
2022-09-21T15:18:45.282Z,95.40
2022-09-21T15:21:19.949Z,94.90
2022-09-21T15:23:46.734Z,95.80
2022-09-21T15:26:16.776Z,95.20
2022-09-21T15:29:07.900Z,95.80
2022-09-21T15:31:32.875Z,96.50
2022-09-21T15:34:00.150Z,96.10
2022-09-21T15:36:28.675Z,96.60
2022-09-21T15:38:55.880Z,96.20
2022-09-21T15:41:40.341Z,96.10
2022-09-21T15:44:12.564Z,96.50
2022-09-21T15:46:39.668Z,96.70
2022-09-21T15:49:09.755Z,96.90
2022-09-21T15:51:38.334Z,96.50
2022-09-21T15:54:06.940Z,96.30
2022-09-21T15:56:34.306Z,96.40
2022-09-21T15:59:03.785Z,96.70
2022-09-21T16:01:30.704Z,96.70
2022-09-21T16:04:02.420Z,97.10
2022-09-21T16:06:36.450Z,96.60
2022-09-21T16:09:27.552Z,96.60
2022-09-21T16:11:55.090Z,97.10
2022-09-21T16:14:23.311Z,96.50
2022-09-21T16:17:08.445Z,96.70
2022-09-21T16:19:42.566Z,96.80
2022-09-21T16:22:11.141Z,96.90
2022-09-21T16:24:43.849Z,97.10
2022-09-21T16:27:14.813Z,96.90
2022-09-21T16:29:44.762Z,97.40
2022-09-21T16:32:20.067Z,97.40
2022-09-21T16:34:47.828Z,98.20
2022-09-21T16:37:22.099Z,99.00
2022-09-21T16:39:49.282Z,99.00
2022-09-21T16:42:16.245Z,99.00
2022-09-21T16:44:44.169Z,99.00
2022-09-21T16:47:12.592Z,99.90
2022-09-21T16:49:39.170Z,99.70
2022-09-21T16:52:05.755Z,99.10
2022-09-21T16:54:32.958Z,98.70
2022-09-21T16:57:02.208Z,99.90
2022-09-21T16:59:29.205Z,99.90
2022-09-21T17:01:58.087Z,99.90
2022-09-21T17:04:25.525Z,99.90
2022-09-21T17:06:52.456Z,99.90
2022-09-21T17:09:22.974Z,99.90
2022-09-21T17:11:52.522Z,99.90
2022-09-21T17:14:20.221Z,99.90
2022-09-21T17:16:47.914Z,99.90
2022-09-21T17:19:16.089Z,99.90
2022-09-21T17:21:43.318Z,99.90
2022-09-21T17:24:09.877Z,99.90
2022-09-21T17:26:39.042Z,99.90
2022-09-21T17:29:13.971Z,99.90
2022-09-21T17:31:40.613Z,99.90
2022-09-21T17:34:09.030Z,99.90
2022-09-21T17:36:37.223Z,99.90
2022-09-21T17:39:03.913Z,99.90
2022-09-21T17:41:35.022Z,99.90
2022-09-21T17:44:05.243Z,99.90
2022-09-21T17:46:36.297Z,99.90
2022-09-21T17:49:03.544Z,99.90
2022-09-21T17:51:30.490Z,99.90
2022-09-21T17:53:59.345Z,99.90
2022-09-21T17:56:31.957Z,99.90
2022-09-21T17:59:00.959Z,99.90
2022-09-21T18:01:30.739Z,99.90
2022-09-21T18:03:57.741Z,99.90
2022-09-21T18:06:25.525Z,99.90
2022-09-21T18:08:54.069Z,99.90
2022-09-21T18:11:36.589Z,99.90
2022-09-21T18:14:08.316Z,99.90
2022-09-21T18:16:38.141Z,99.90
2022-09-21T18:19:15.446Z,99.90
2022-09-21T18:21:45.544Z,99.90
2022-09-21T18:24:19.123Z,99.90
2022-09-21T18:26:47.582Z,99.90
2022-09-21T18:29:39.011Z,99.90
2022-09-21T18:32:14.491Z,99.90
2022-09-21T18:34:54.404Z,99.90
2022-09-21T18:37:27.472Z,99.90
2022-09-21T18:40:00.094Z,99.90
2022-09-21T18:42:38.051Z,99.90
2022-09-21T18:45:10.456Z,99.90
2022-09-21T18:47:41.142Z,99.90
2022-09-21T18:50:16.459Z,99.90
2022-09-21T18:52:49.418Z,99.90
2022-09-21T18:55:22.658Z,99.90
2022-09-21T18:57:51.118Z,99.90
2022-09-21T19:00:19.032Z,99.90
2022-09-21T19:03:05.479Z,99.90
2022-09-21T19:08:38.777Z,99.90
2022-09-21T19:11:13.283Z,99.90
2022-09-21T19:13:47.167Z,99.90
2022-09-21T19:16:24.331Z,99.90
2022-09-21T19:19:04.472Z,99.90
2022-09-21T19:21:39.817Z,99.90
2022-09-21T19:24:17.838Z,99.90
2022-09-21T19:26:51.032Z,99.90
2022-09-21T19:29:30.855Z,99.90
2022-09-21T19:31:58.450Z,99.90
2022-09-21T19:34:25.574Z,99.90
2022-09-21T19:36:52.441Z,99.90
2022-09-21T19:39:21.637Z,99.90
2022-09-21T19:41:59.278Z,99.90
2022-09-21T19:44:48.447Z,99.90
2022-09-21T19:47:25.270Z,99.90
2022-09-21T19:49:54.059Z,99.90
2022-09-21T19:52:28.194Z,99.90
2022-09-21T19:54:57.909Z,99.90
2022-09-21T19:57:24.746Z,99.90
2022-09-21T19:59:51.836Z,99.90
2022-09-21T20:02:23.272Z,99.90
2022-09-21T20:04:55.001Z,99.90
2022-09-21T20:07:31.486Z,99.90
2022-09-21T20:10:11.893Z,99.90
2022-09-21T20:12:45.976Z,99.90
2022-09-21T20:15:17.103Z,99.90
2022-09-21T20:17:49.834Z,99.90
2022-09-21T20:20:21.188Z,99.90
2022-09-21T20:22:48.845Z,99.90
2022-09-21T20:25:21.439Z,99.90
2022-09-21T20:27:50.342Z,99.90
2022-09-21T20:30:20.447Z,99.90
2022-09-21T20:32:51.809Z,99.90
2022-09-21T20:35:21.056Z,99.90
2022-09-21T20:37:48.086Z,99.90
2022-09-21T20:40:16.599Z,99.90
2022-09-21T20:42:44.335Z,99.90
2022-09-21T20:45:12.340Z,99.90
2022-09-21T20:47:39.724Z,99.90
2022-09-21T20:50:08.602Z,99.90
2022-09-21T20:52:35.346Z,99.90
2022-09-21T20:55:02.147Z,99.90
2022-09-21T20:57:30.810Z,99.90
2022-09-21T20:59:57.501Z,99.90
2022-09-21T21:02:24.194Z,99.90
2022-09-21T21:04:51.541Z,99.90
2022-09-21T21:07:18.265Z,99.90
2022-09-21T21:09:44.974Z,99.90
2022-09-21T21:12:12.316Z,99.90
2022-09-21T21:14:40.363Z,99.90
2022-09-21T21:17:07.186Z,99.90
2022-09-21T21:19:34.658Z,99.90
2022-09-21T21:22:01.384Z,99.90
2022-09-21T21:24:28.172Z,99.90
2022-09-21T21:27:02.101Z,99.90
2022-09-21T21:29:29.930Z,99.90
2022-09-21T21:31:58.965Z,99.90
2022-09-21T21:34:26.018Z,99.90
2022-09-21T21:36:53.118Z,99.90
2022-09-21T21:39:20.517Z,99.90
2022-09-21T21:41:47.443Z,99.90
2022-09-21T21:44:14.213Z,99.90
2022-09-21T21:46:41.771Z,99.90
2022-09-21T21:49:09.870Z,99.90
2022-09-21T21:51:36.582Z,99.90
2022-09-21T21:54:03.911Z,99.90
2022-09-21T21:56:30.740Z,99.90
2022-09-21T21:58:57.471Z,99.90
2022-09-21T22:01:26.687Z,99.90
2022-09-21T22:03:54.791Z,99.90
2022-09-21T22:06:23.647Z,99.90
2022-09-21T22:08:51.725Z,99.90
2022-09-21T22:11:18.972Z,99.90
2022-09-21T22:13:46.166Z,99.90
2022-09-21T22:16:15.556Z,99.90
2022-09-21T22:18:43.032Z,99.90
2022-09-21T22:21:12.209Z,99.90
2022-09-21T22:23:41.118Z,99.90
2022-09-21T22:26:10.184Z,99.90
2022-09-21T22:28:37.615Z,99.90
2022-09-21T22:31:09.324Z,99.90
2022-09-21T22:33:36.446Z,99.90
2022-09-21T22:36:06.839Z,99.90
2022-09-21T22:38:38.082Z,99.90
2022-09-21T22:41:10.369Z,99.90
2022-09-21T22:43:37.934Z,99.90
2022-09-21T22:46:05.514Z,99.90
2022-09-21T22:48:32.435Z,99.90
2022-09-21T22:50:59.868Z,99.90
2022-09-21T22:53:26.771Z,99.90
2022-09-21T22:56:03.106Z,99.90
2022-09-21T22:58:33.061Z,99.90
2022-09-21T23:01:04.820Z,99.90
2022-09-21T23:03:32.547Z,99.90
2022-09-21T23:06:00.116Z,99.90
2022-09-21T23:08:27.843Z,99.90
2022-09-21T23:10:55.506Z,99.90
2022-09-21T23:13:22.371Z,99.90
2022-09-21T23:15:50.428Z,99.90
2022-09-21T23:18:17.874Z,99.90
2022-09-21T23:20:44.616Z,99.90
2022-09-21T23:23:11.343Z,99.90
2022-09-21T23:25:38.676Z,99.90
2022-09-21T23:28:05.377Z,99.90
2022-09-21T23:30:32.079Z,99.90
2022-09-21T23:33:00.726Z,99.90
2022-09-21T23:35:27.437Z,99.90
2022-09-21T23:37:54.140Z,99.90
2022-09-21T23:40:21.551Z,99.90
2022-09-21T23:42:48.306Z,99.90
2022-09-21T23:45:15.104Z,99.90
2022-09-21T23:47:42.423Z,99.90
2022-09-21T23:50:10.795Z,99.90
2022-09-21T23:52:37.550Z,99.90
2022-09-21T23:55:05.460Z,99.90
2022-09-21T23:57:32.199Z,99.90
2022-09-21T23:59:58.917Z,99.90
